sensor_id;sensor_type;location;lat;lon;timestamp;P1;durP1;ratioP1;P2;durP2;ratioP2
19167;SDS011;9716;53.114;18.040;2024-03-23T00:54:27;5.32;;;2.50;;
19167;SDS011;9716;53.114;18.040;2024-03-23T00:56:55;5.40;;;2.72;;
19167;SDS011;9716;53.114;18.040;2024-03-23T00:59:21;8.05;;;2.88;;
19167;SDS011;9716;53.114;18.040;2024-03-23T01:01:52;3.95;;;2.00;;
19167;SDS011;9716;53.114;18.040;2024-03-23T01:04:19;5.93;;;2.30;;
19167;SDS011;9716;53.114;18.040;2024-03-23T01:06:47;9.32;;;2.72;;
19167;SDS011;9716;53.114;18.040;2024-03-23T01:09:14;6.43;;;1.85;;
19167;SDS011;9716;53.114;18.040;2024-03-23T01:11:42;6.95;;;2.33;;
19167;SDS011;9716;53.114;18.040;2024-03-23T01:14:09;8.18;;;2.20;;
19167;SDS011;9716;53.114;18.040;2024-03-23T01:16:37;6.55;;;2.35;;
19167;SDS011;9716;53.114;18.040;2024-03-23T01:19:03;4.95;;;1.90;;
19167;SDS011;9716;53.114;18.040;2024-03-23T01:21:31;6.68;;;2.20;;
19167;SDS011;9716;53.114;18.040;2024-03-23T01:23:58;8.98;;;2.63;;
19167;SDS011;9716;53.114;18.040;2024-03-23T01:26:25;7.55;;;2.88;;
19167;SDS011;9716;53.114;18.040;2024-03-23T01:28:54;5.93;;;3.13;;
19167;SDS011;9716;53.114;18.040;2024-03-23T01:31:21;5.95;;;2.67;;
19167;SDS011;9716;53.114;18.040;2024-03-23T01:33:48;9.15;;;3.67;;
19167;SDS011;9716;53.114;18.040;2024-03-23T01:36:16;4.32;;;2.78;;
19167;SDS011;9716;53.114;18.040;2024-03-23T01:38:43;7.93;;;2.58;;
19167;SDS011;9716;53.114;18.040;2024-03-23T01:41:10;8.05;;;2.50;;
19167;SDS011;9716;53.114;18.040;2024-03-23T01:43:37;8.30;;;2.97;;
19167;SDS011;9716;53.114;18.040;2024-03-23T01:46:06;4.50;;;2.67;;
19167;SDS011;9716;53.114;18.040;2024-03-23T01:48:32;8.20;;;3.05;;
19167;SDS011;9716;53.114;18.040;2024-03-23T01:51:03;3.35;;;2.10;;
19167;SDS011;9716;53.114;18.040;2024-03-23T01:53:31;7.03;;;2.58;;
19167;SDS011;9716;53.114;18.040;2024-03-23T01:55:58;5.80;;;2.28;;
19167;SDS011;9716;53.114;18.040;2024-03-23T01:58:26;3.67;;;2.40;;
19167;SDS011;9716;53.114;18.040;2024-03-23T02:00:53;6.90;;;3.00;;
19167;SDS011;9716;53.114;18.040;2024-03-23T02:03:25;3.35;;;1.55;;
19167;SDS011;9716;53.114;18.040;2024-03-23T02:05:53;5.95;;;2.22;;
19167;SDS011;9716;53.114;18.040;2024-03-23T02:08:22;6.00;;;2.78;;
19167;SDS011;9716;53.114;18.040;2024-03-23T02:10:50;3.88;;;1.92;;
19167;SDS011;9716;53.114;18.040;2024-03-23T02:13:17;7.45;;;2.47;;
19167;SDS011;9716;53.114;18.040;2024-03-23T02:15:45;4.65;;;2.22;;
19167;SDS011;9716;53.114;18.040;2024-03-23T02:18:12;3.13;;;1.75;;
19167;SDS011;9716;53.114;18.040;2024-03-23T02:20:41;3.50;;;1.80;;
19167;SDS011;9716;53.114;18.040;2024-03-23T02:23:14;5.13;;;1.85;;
19167;SDS011;9716;53.114;18.040;2024-03-23T02:25:41;11.10;;;2.25;;
19167;SDS011;9716;53.114;18.040;2024-03-23T02:28:08;5.80;;;1.67;;
19167;SDS011;9716;53.114;18.040;2024-03-23T02:30:36;6.63;;;2.40;;
19167;SDS011;9716;53.114;18.040;2024-03-23T02:33:03;5.03;;;2.05;;
19167;SDS011;9716;53.114;18.040;2024-03-23T02:35:31;10.50;;;2.22;;
19167;SDS011;9716;53.114;18.040;2024-03-23T02:37:59;2.95;;;1.67;;
19167;SDS011;9716;53.114;18.040;2024-03-23T02:40:28;4.97;;;1.92;;
19167;SDS011;9716;53.114;18.040;2024-03-23T02:42:55;4.07;;;1.58;;
19167;SDS011;9716;53.114;18.040;2024-03-23T02:45:23;6.95;;;2.25;;
19167;SDS011;9716;53.114;18.040;2024-03-23T02:47:49;4.72;;;1.73;;
19167;SDS011;9716;53.114;18.040;2024-03-23T02:50:18;5.47;;;2.85;;
19167;SDS011;9716;53.114;18.040;2024-03-23T02:52:45;3.35;;;1.92;;
19167;SDS011;9716;53.114;18.040;2024-03-23T02:55:12;3.20;;;2.17;;
19167;SDS011;9716;53.114;18.040;2024-03-23T02:57:41;10.27;;;2.95;;
19167;SDS011;9716;53.114;18.040;2024-03-23T03:00:09;6.60;;;2.05;;
19167;SDS011;9716;53.114;18.040;2024-03-23T03:02:37;8.20;;;1.90;;
19167;SDS011;9716;53.114;18.040;2024-03-23T03:05:05;4.63;;;2.05;;
19167;SDS011;9716;53.114;18.040;2024-03-23T03:07:32;5.40;;;2.17;;
19167;SDS011;9716;53.114;18.040;2024-03-23T03:10:00;8.75;;;2.10;;
19167;SDS011;9716;53.114;18.040;2024-03-23T03:12:26;7.38;;;2.22;;
19167;SDS011;9716;53.114;18.040;2024-03-23T03:14:56;7.25;;;2.38;;
19167;SDS011;9716;53.114;18.040;2024-03-23T03:17:23;8.32;;;2.05;;
19167;SDS011;9716;53.114;18.040;2024-03-23T03:19:50;11.88;;;2.75;;
19167;SDS011;9716;53.114;18.040;2024-03-23T03:22:21;5.72;;;1.67;;
19167;SDS011;9716;53.114;18.040;2024-03-23T03:24:49;7.82;;;2.13;;
19167;SDS011;9716;53.114;18.040;2024-03-23T03:27:16;7.53;;;2.13;;
19167;SDS011;9716;53.114;18.040;2024-03-23T03:29:44;5.30;;;2.47;;
19167;SDS011;9716;53.114;18.040;2024-03-23T03:32:12;5.93;;;2.10;;
19167;SDS011;9716;53.114;18.040;2024-03-23T03:34:39;6.30;;;2.20;;
19167;SDS011;9716;53.114;18.040;2024-03-23T03:37:06;4.05;;;2.13;;
19167;SDS011;9716;53.114;18.040;2024-03-23T03:39:34;6.95;;;3.33;;
19167;SDS011;9716;53.114;18.040;2024-03-23T03:42:01;3.00;;;1.60;;
19167;SDS011;9716;53.114;18.040;2024-03-23T03:44:32;4.50;;;2.65;;
19167;SDS011;9716;53.114;18.040;2024-03-23T03:46:59;6.78;;;3.22;;
19167;SDS011;9716;53.114;18.040;2024-03-23T03:49:28;11.25;;;3.03;;
19167;SDS011;9716;53.114;18.040;2024-03-23T03:51:55;11.82;;;2.28;;
19167;SDS011;9716;53.114;18.040;2024-03-23T03:54:22;2.63;;;1.95;;
19167;SDS011;9716;53.114;18.040;2024-03-23T03:56:49;5.72;;;2.28;;
19167;SDS011;9716;53.114;18.040;2024-03-23T03:59:20;6.63;;;2.70;;
19167;SDS011;9716;53.114;18.040;2024-03-23T04:01:46;8.32;;;2.63;;
19167;SDS011;9716;53.114;18.040;2024-03-23T04:04:14;4.72;;;1.92;;
19167;SDS011;9716;53.114;18.040;2024-03-23T04:06:44;3.65;;;1.67;;
19167;SDS011;9716;53.114;18.040;2024-03-23T04:09:11;4.28;;;2.70;;
19167;SDS011;9716;53.114;18.040;2024-03-23T04:11:38;3.35;;;1.85;;
19167;SDS011;9716;53.114;18.040;2024-03-23T04:14:06;9.85;;;2.20;;
19167;SDS011;9716;53.114;18.040;2024-03-23T04:16:33;14.13;;;2.53;;
19167;SDS011;9716;53.114;18.040;2024-03-23T04:19:02;4.65;;;2.15;;
19167;SDS011;9716;53.114;18.040;2024-03-23T04:21:30;5.57;;;2.22;;
19167;SDS011;9716;53.114;18.040;2024-03-23T04:23:59;5.80;;;1.95;;
19167;SDS011;9716;53.114;18.040;2024-03-23T04:26:26;6.72;;;2.17;;
19167;SDS011;9716;53.114;18.040;2024-03-23T04:28:53;13.13;;;2.38;;
19167;SDS011;9716;53.114;18.040;2024-03-23T04:31:20;3.97;;;2.63;;
19167;SDS011;9716;53.114;18.040;2024-03-23T04:33:48;9.18;;;2.90;;
19167;SDS011;9716;53.114;18.040;2024-03-23T04:36:15;5.00;;;1.63;;
19167;SDS011;9716;53.114;18.040;2024-03-23T04:38:42;6.53;;;2.67;;
19167;SDS011;9716;53.114;18.040;2024-03-23T04:41:13;7.93;;;2.30;;
19167;SDS011;9716;53.114;18.040;2024-03-23T04:43:40;5.55;;;2.10;;
19167;SDS011;9716;53.114;18.040;2024-03-23T04:46:08;6.20;;;2.67;;
19167;SDS011;9716;53.114;18.040;2024-03-23T04:48:36;8.27;;;2.20;;
19167;SDS011;9716;53.114;18.040;2024-03-23T04:51:04;4.47;;;2.17;;
19167;SDS011;9716;53.114;18.040;2024-03-23T04:53:31;3.72;;;1.90;;
19167;SDS011;9716;53.114;18.040;2024-03-23T04:55:59;3.28;;;2.25;;
19167;SDS011;9716;53.114;18.040;2024-03-23T04:58:29;4.22;;;2.15;;
19167;SDS011;9716;53.114;18.040;2024-03-23T05:00:56;6.38;;;2.40;;
19167;SDS011;9716;53.114;18.040;2024-03-23T05:03:24;5.03;;;2.08;;
19167;SDS011;9716;53.114;18.040;2024-03-23T05:05:51;8.02;;;1.95;;
19167;SDS011;9716;53.114;18.040;2024-03-23T05:08:19;7.93;;;2.83;;
19167;SDS011;9716;53.114;18.040;2024-03-23T05:10:45;10.18;;;2.50;;
19167;SDS011;9716;53.114;18.040;2024-03-23T05:13:13;12.50;;;2.00;;
19167;SDS011;9716;53.114;18.040;2024-03-23T05:15:41;5.03;;;1.92;;
19167;SDS011;9716;53.114;18.040;2024-03-23T05:18:09;4.68;;;2.10;;
19167;SDS011;9716;53.114;18.040;2024-03-23T05:20:36;7.07;;;2.25;;
19167;SDS011;9716;53.114;18.040;2024-03-23T05:23:04;5.82;;;1.88;;
19167;SDS011;9716;53.114;18.040;2024-03-23T05:25:31;5.22;;;2.47;;
19167;SDS011;9716;53.114;18.040;2024-03-23T05:27:58;7.20;;;2.72;;
19167;SDS011;9716;53.114;18.040;2024-03-23T05:30:25;10.10;;;2.53;;
19167;SDS011;9716;53.114;18.040;2024-03-23T05:32:54;3.67;;;1.75;;
19167;SDS011;9716;53.114;18.040;2024-03-23T05:35:21;6.45;;;3.25;;
19167;SDS011;9716;53.114;18.040;2024-03-23T05:37:48;10.13;;;2.95;;
19167;SDS011;9716;53.114;18.040;2024-03-23T05:40:15;9.50;;;2.80;;
19167;SDS011;9716;53.114;18.040;2024-03-23T05:42:43;6.28;;;2.55;;
19167;SDS011;9716;53.114;18.040;2024-03-23T05:47:57;6.78;;;2.47;;
19167;SDS011;9716;53.114;18.040;2024-03-23T05:50:25;10.93;;;3.10;;
19167;SDS011;9716;53.114;18.040;2024-03-23T05:52:52;9.65;;;2.70;;
19167;SDS011;9716;53.114;18.040;2024-03-23T05:55:20;8.30;;;3.78;;
19167;SDS011;9716;53.114;18.040;2024-03-23T05:57:47;18.77;;;3.22;;
19167;SDS011;9716;53.114;18.040;2024-03-23T06:00:15;4.22;;;2.50;;
19167;SDS011;9716;53.114;18.040;2024-03-23T06:02:42;10.07;;;2.83;;
19167;SDS011;9716;53.114;18.040;2024-03-23T06:05:12;6.07;;;2.53;;
19167;SDS011;9716;53.114;18.040;2024-03-23T06:07:42;9.38;;;3.17;;
19167;SDS011;9716;53.114;18.040;2024-03-23T06:10:10;5.20;;;2.85;;
19167;SDS011;9716;53.114;18.040;2024-03-23T06:12:37;8.18;;;2.53;;
19167;SDS011;9716;53.114;18.040;2024-03-23T06:15:05;7.15;;;2.53;;
19167;SDS011;9716;53.114;18.040;2024-03-23T06:17:36;12.27;;;2.63;;
19167;SDS011;9716;53.114;18.040;2024-03-23T06:20:05;9.32;;;2.83;;
19167;SDS011;9716;53.114;18.040;2024-03-23T06:22:33;4.43;;;2.00;;
19167;SDS011;9716;53.114;18.040;2024-03-23T06:25:01;10.27;;;2.42;;
19167;SDS011;9716;53.114;18.040;2024-03-23T06:27:28;6.05;;;2.65;;
19167;SDS011;9716;53.114;18.040;2024-03-23T06:29:58;10.27;;;2.95;;
19167;SDS011;9716;53.114;18.040;2024-03-23T06:32:25;10.63;;;2.83;;
19167;SDS011;9716;53.114;18.040;2024-03-23T06:34:53;9.43;;;4.45;;
19167;SDS011;9716;53.114;18.040;2024-03-23T06:37:20;6.28;;;2.45;;
19167;SDS011;9716;53.114;18.040;2024-03-23T06:39:52;10.35;;;2.55;;
19167;SDS011;9716;53.114;18.040;2024-03-23T06:42:18;5.15;;;2.15;;
19167;SDS011;9716;53.114;18.040;2024-03-23T06:44:46;9.75;;;2.75;;
19167;SDS011;9716;53.114;18.040;2024-03-23T06:47:13;12.07;;;2.75;;
19167;SDS011;9716;53.114;18.040;2024-03-23T06:49:41;9.07;;;2.67;;
19167;SDS011;9716;53.114;18.040;2024-03-23T06:52:11;6.28;;;2.22;;
19167;SDS011;9716;53.114;18.040;2024-03-23T06:54:39;10.23;;;3.25;;
19167;SDS011;9716;53.114;18.040;2024-03-23T06:57:07;8.85;;;2.63;;
19167;SDS011;9716;53.114;18.040;2024-03-23T06:59:35;15.70;;;2.87;;
19167;SDS011;9716;53.114;18.040;2024-03-23T07:02:02;6.40;;;2.20;;
19167;SDS011;9716;53.114;18.040;2024-03-23T07:04:30;5.55;;;2.72;;
19167;SDS011;9716;53.114;18.040;2024-03-23T07:06:57;13.30;;;3.10;;
19167;SDS011;9716;53.114;18.040;2024-03-23T07:09:25;10.55;;;2.70;;
19167;SDS011;9716;53.114;18.040;2024-03-23T07:11:53;7.78;;;3.00;;
19167;SDS011;9716;53.114;18.040;2024-03-23T07:14:23;6.75;;;2.88;;
19167;SDS011;9716;53.114;18.040;2024-03-23T07:16:51;6.72;;;2.00;;
19167;SDS011;9716;53.114;18.040;2024-03-23T07:19:19;11.43;;;2.92;;
19167;SDS011;9716;53.114;18.040;2024-03-23T07:21:46;14.40;;;5.00;;
19167;SDS011;9716;53.114;18.040;2024-03-23T07:24:14;7.75;;;3.50;;
19167;SDS011;9716;53.114;18.040;2024-03-23T07:26:42;10.40;;;3.28;;
19167;SDS011;9716;53.114;18.040;2024-03-23T07:29:10;10.07;;;3.22;;
19167;SDS011;9716;53.114;18.040;2024-03-23T07:31:39;11.18;;;3.47;;
19167;SDS011;9716;53.114;18.040;2024-03-23T07:34:07;6.97;;;2.88;;
19167;SDS011;9716;53.114;18.040;2024-03-23T07:36:35;7.43;;;3.78;;
19167;SDS011;9716;53.114;18.040;2024-03-23T07:39:02;18.17;;;4.10;;
19167;SDS011;9716;53.114;18.040;2024-03-23T07:41:30;9.45;;;4.38;;
19167;SDS011;9716;53.114;18.040;2024-03-23T07:43:57;12.98;;;4.03;;
19167;SDS011;9716;53.114;18.040;2024-03-23T07:46:24;13.03;;;4.17;;
19167;SDS011;9716;53.114;18.040;2024-03-23T07:48:53;21.20;;;4.47;;
19167;SDS011;9716;53.114;18.040;2024-03-23T07:51:35;15.30;;;3.70;;
19167;SDS011;9716;53.114;18.040;2024-03-23T07:54:05;19.00;;;4.55;;
19167;SDS011;9716;53.114;18.040;2024-03-23T07:56:32;11.38;;;3.47;;
19167;SDS011;9716;53.114;18.040;2024-03-23T07:59:00;10.88;;;3.65;;
19167;SDS011;9716;53.114;18.040;2024-03-23T08:01:29;15.98;;;3.45;;
19167;SDS011;9716;53.114;18.040;2024-03-23T08:03:58;11.63;;;2.85;;
19167;SDS011;9716;53.114;18.040;2024-03-23T08:06:25;13.48;;;3.63;;
19167;SDS011;9716;53.114;18.040;2024-03-23T08:08:54;15.77;;;4.15;;
19167;SDS011;9716;53.114;18.040;2024-03-23T08:11:25;7.13;;;2.83;;
19167;SDS011;9716;53.114;18.040;2024-03-23T08:13:55;9.32;;;3.33;;
19167;SDS011;9716;53.114;18.040;2024-03-23T08:16:22;11.13;;;3.25;;
19167;SDS011;9716;53.114;18.040;2024-03-23T08:18:58;7.55;;;2.70;;
19167;SDS011;9716;53.114;18.040;2024-03-23T08:21:25;8.82;;;2.90;;
19167;SDS011;9716;53.114;18.040;2024-03-23T08:24:01;9.38;;;2.80;;
19167;SDS011;9716;53.114;18.040;2024-03-23T08:26:31;5.28;;;2.20;;
19167;SDS011;9716;53.114;18.040;2024-03-23T08:28:59;10.70;;;2.60;;
19167;SDS011;9716;53.114;18.040;2024-03-23T08:31:25;9.32;;;2.03;;
19167;SDS011;9716;53.114;18.040;2024-03-23T08:33:54;11.73;;;2.15;;
19167;SDS011;9716;53.114;18.040;2024-03-23T08:36:22;10.55;;;2.42;;
19167;SDS011;9716;53.114;18.040;2024-03-23T08:38:50;14.85;;;3.15;;
19167;SDS011;9716;53.114;18.040;2024-03-23T08:41:19;9.27;;;3.00;;
19167;SDS011;9716;53.114;18.040;2024-03-23T08:43:47;6.03;;;2.10;;
19167;SDS011;9716;53.114;18.040;2024-03-23T08:46:14;4.57;;;1.77;;
19167;SDS011;9716;53.114;18.040;2024-03-23T08:48:44;8.23;;;2.60;;
19167;SDS011;9716;53.114;18.040;2024-03-23T08:54:16;6.60;;;2.50;;
19167;SDS011;9716;53.114;18.040;2024-03-23T08:56:46;5.05;;;2.08;;
19167;SDS011;9716;53.114;18.040;2024-03-23T08:59:13;7.83;;;2.40;;
19167;SDS011;9716;53.114;18.040;2024-03-23T09:01:40;9.00;;;2.47;;
19167;SDS011;9716;53.114;18.040;2024-03-23T09:04:07;5.95;;;1.73;;
19167;SDS011;9716;53.114;18.040;2024-03-23T09:06:37;3.65;;;1.73;;
19167;SDS011;9716;53.114;18.040;2024-03-23T09:09:04;5.60;;;1.88;;
19167;SDS011;9716;53.114;18.040;2024-03-23T09:11:32;6.63;;;2.38;;
19167;SDS011;9716;53.114;18.040;2024-03-23T09:13:59;7.78;;;1.73;;
19167;SDS011;9716;53.114;18.040;2024-03-23T09:16:29;6.97;;;2.00;;
19167;SDS011;9716;53.114;18.040;2024-03-23T09:18:56;3.08;;;1.58;;
19167;SDS011;9716;53.114;18.040;2024-03-23T09:21:24;6.30;;;2.40;;
19167;SDS011;9716;53.114;18.040;2024-03-23T09:23:52;12.20;;;2.95;;
19167;SDS011;9716;53.114;18.040;2024-03-23T09:26:20;7.70;;;2.97;;
19167;SDS011;9716;53.114;18.040;2024-03-23T09:28:48;6.40;;;2.22;;
19167;SDS011;9716;53.114;18.040;2024-03-23T09:31:16;4.90;;;1.33;;
19167;SDS011;9716;53.114;18.040;2024-03-23T09:33:46;1.77;;;1.47;;
19167;SDS011;9716;53.114;18.040;2024-03-23T09:36:45;3.07;;;1.53;;
19167;SDS011;9716;53.114;18.040;2024-03-23T09:39:15;2.77;;;1.10;;
19167;SDS011;9716;53.114;18.040;2024-03-23T09:41:42;3.33;;;1.40;;
19167;SDS011;9716;53.114;18.040;2024-03-23T09:44:10;6.70;;;1.10;;
19167;SDS011;9716;53.114;18.040;2024-03-23T09:46:36;3.13;;;1.57;;
19167;SDS011;9716;53.114;18.040;2024-03-23T09:49:05;1.73;;;1.63;;
19167;SDS011;9716;53.114;18.040;2024-03-23T09:57:09;7.22;;;1.30;;
19167;SDS011;9716;53.114;18.040;2024-03-23T09:59:38;1.17;;;0.93;;
19167;SDS011;9716;53.114;18.040;2024-03-23T10:02:04;7.00;;;1.73;;
19167;SDS011;9716;53.114;18.040;2024-03-23T10:04:35;4.45;;;1.30;;
19167;SDS011;9716;53.114;18.040;2024-03-23T10:07:09;7.10;;;1.35;;
19167;SDS011;9716;53.114;18.040;2024-03-23T10:09:39;6.40;;;1.45;;
19167;SDS011;9716;53.114;18.040;2024-03-23T10:12:10;7.18;;;1.80;;
19167;SDS011;9716;53.114;18.040;2024-03-23T10:14:43;1.00;;;0.93;;
19167;SDS011;9716;53.114;18.040;2024-03-23T10:17:11;2.40;;;1.07;;
19167;SDS011;9716;53.114;18.040;2024-03-23T10:19:41;2.00;;;1.10;;
19167;SDS011;9716;53.114;18.040;2024-03-23T10:22:08;1.77;;;1.20;;
19167;SDS011;9716;53.114;18.040;2024-03-23T10:24:41;3.42;;;1.60;;
19167;SDS011;9716;53.114;18.040;2024-03-23T10:27:08;1.20;;;1.00;;
19167;SDS011;9716;53.114;18.040;2024-03-23T10:29:37;1.50;;;1.10;;
19167;SDS011;9716;53.114;18.040;2024-03-23T10:32:08;2.75;;;1.05;;
19167;SDS011;9716;53.114;18.040;2024-03-23T10:34:37;2.83;;;1.97;;
19167;SDS011;9716;53.114;18.040;2024-03-23T10:37:06;0.77;;;0.77;;
19167;SDS011;9716;53.114;18.040;2024-03-23T10:39:38;4.20;;;1.20;;
19167;SDS011;9716;53.114;18.040;2024-03-23T10:42:08;2.60;;;1.30;;
19167;SDS011;9716;53.114;18.040;2024-03-23T10:44:38;2.53;;;1.37;;
19167;SDS011;9716;53.114;18.040;2024-03-23T10:47:05;2.50;;;1.23;;
19167;SDS011;9716;53.114;18.040;2024-03-23T10:49:34;2.57;;;1.17;;
19167;SDS011;9716;53.114;18.040;2024-03-23T10:52:02;1.20;;;0.97;;
19167;SDS011;9716;53.114;18.040;2024-03-23T10:54:31;2.00;;;1.07;;
19167;SDS011;9716;53.114;18.040;2024-03-23T10:56:59;3.30;;;1.47;;
19167;SDS011;9716;53.114;18.040;2024-03-23T10:59:32;2.07;;;1.23;;
19167;SDS011;9716;53.114;18.040;2024-03-23T11:02:01;1.97;;;1.10;;
19167;SDS011;9716;53.114;18.040;2024-03-23T11:04:30;3.20;;;1.33;;
19167;SDS011;9716;53.114;18.040;2024-03-23T11:07:06;2.53;;;1.27;;
19167;SDS011;9716;53.114;18.040;2024-03-23T11:09:56;2.67;;;1.50;;
19167;SDS011;9716;53.114;18.040;2024-03-23T11:12:27;5.00;;;1.40;;
19167;SDS011;9716;53.114;18.040;2024-03-23T11:15:00;3.75;;;1.55;;
19167;SDS011;9716;53.114;18.040;2024-03-23T11:17:30;3.95;;;1.60;;
19167;SDS011;9716;53.114;18.040;2024-03-23T11:20:03;5.53;;;1.70;;
19167;SDS011;9716;53.114;18.040;2024-03-23T11:22:48;5.55;;;1.35;;
19167;SDS011;9716;53.114;18.040;2024-03-23T11:25:18;2.72;;;1.38;;
19167;SDS011;9716;53.114;18.040;2024-03-23T11:27:47;5.18;;;1.83;;
19167;SDS011;9716;53.114;18.040;2024-03-23T11:30:16;9.70;;;2.13;;
19167;SDS011;9716;53.114;18.040;2024-03-23T11:32:46;4.53;;;1.15;;
19167;SDS011;9716;53.114;18.040;2024-03-23T11:35:27;5.72;;;1.83;;
19167;SDS011;9716;53.114;18.040;2024-03-23T11:40:49;5.50;;;1.85;;
19167;SDS011;9716;53.114;18.040;2024-03-23T11:43:17;3.20;;;1.60;;
19167;SDS011;9716;53.114;18.040;2024-03-23T11:45:46;2.47;;;1.33;;
19167;SDS011;9716;53.114;18.040;2024-03-23T11:48:16;3.20;;;1.50;;
19167;SDS011;9716;53.114;18.040;2024-03-23T11:50:47;3.20;;;1.42;;
19167;SDS011;9716;53.114;18.040;2024-03-23T11:53:16;2.08;;;1.77;;
19167;SDS011;9716;53.114;18.040;2024-03-23T11:55:51;5.65;;;1.88;;
19167;SDS011;9716;53.114;18.040;2024-03-23T11:58:21;2.60;;;1.60;;
19167;SDS011;9716;53.114;18.040;2024-03-23T12:00:50;4.57;;;1.67;;
19167;SDS011;9716;53.114;18.040;2024-03-23T12:03:20;4.78;;;1.58;;
19167;SDS011;9716;53.114;18.040;2024-03-23T12:06:07;4.85;;;1.55;;
19167;SDS011;9716;53.114;18.040;2024-03-23T12:09:16;2.50;;;1.40;;
19167;SDS011;9716;53.114;18.040;2024-03-23T12:11:54;7.20;;;1.85;;
19167;SDS011;9716;53.114;18.040;2024-03-23T12:14:21;3.00;;;2.13;;
19167;SDS011;9716;53.114;18.040;2024-03-23T12:16:50;3.42;;;1.85;;
19167;SDS011;9716;53.114;18.040;2024-03-23T12:19:18;6.07;;;1.85;;
19167;SDS011;9716;53.114;18.040;2024-03-23T12:21:52;5.78;;;1.55;;
19167;SDS011;9716;53.114;18.040;2024-03-23T12:24:20;7.90;;;1.80;;
19167;SDS011;9716;53.114;18.040;2024-03-23T12:26:48;3.67;;;1.75;;
19167;SDS011;9716;53.114;18.040;2024-03-23T12:32:13;4.30;;;2.38;;
19167;SDS011;9716;53.114;18.040;2024-03-23T12:34:43;5.50;;;1.98;;
19167;SDS011;9716;53.114;18.040;2024-03-23T12:37:10;3.63;;;1.58;;
19167;SDS011;9716;53.114;18.040;2024-03-23T12:39:38;3.93;;;1.73;;
19167;SDS011;9716;53.114;18.040;2024-03-23T12:42:05;5.57;;;1.90;;
19167;SDS011;9716;53.114;18.040;2024-03-23T12:44:33;4.40;;;1.52;;
19167;SDS011;9716;53.114;18.040;2024-03-23T12:49:52;6.93;;;1.90;;
19167;SDS011;9716;53.114;18.040;2024-03-23T12:52:33;2.88;;;1.88;;
19167;SDS011;9716;53.114;18.040;2024-03-23T12:55:01;3.33;;;1.58;;
19167;SDS011;9716;53.114;18.040;2024-03-23T12:57:29;5.93;;;2.53;;
19167;SDS011;9716;53.114;18.040;2024-03-23T12:59:57;9.27;;;3.33;;
19167;SDS011;9716;53.114;18.040;2024-03-23T13:02:24;8.30;;;2.90;;
19167;SDS011;9716;53.114;18.040;2024-03-23T13:07:49;6.50;;;2.83;;
19167;SDS011;9716;53.114;18.040;2024-03-23T13:10:17;3.10;;;2.30;;
19167;SDS011;9716;53.114;18.040;2024-03-23T13:12:47;2.67;;;1.95;;
19167;SDS011;9716;53.114;18.040;2024-03-23T13:15:16;4.13;;;2.60;;
19167;SDS011;9716;53.114;18.040;2024-03-23T13:17:45;7.93;;;2.13;;
19167;SDS011;9716;53.114;18.040;2024-03-23T13:20:12;3.60;;;1.65;;
19167;SDS011;9716;53.114;18.040;2024-03-23T13:22:42;4.33;;;1.60;;
19167;SDS011;9716;53.114;18.040;2024-03-23T13:25:13;2.95;;;1.60;;
19167;SDS011;9716;53.114;18.040;2024-03-23T13:27:41;3.85;;;1.77;;
19167;SDS011;9716;53.114;18.040;2024-03-23T13:30:10;5.63;;;1.88;;
19167;SDS011;9716;53.114;18.040;2024-03-23T13:32:38;8.00;;;2.43;;
19167;SDS011;9716;53.114;18.040;2024-03-23T13:35:06;6.80;;;2.43;;
19167;SDS011;9716;53.114;18.040;2024-03-23T13:37:34;3.30;;;1.90;;
19167;SDS011;9716;53.114;18.040;2024-03-23T13:40:02;3.97;;;2.10;;
19167;SDS011;9716;53.114;18.040;2024-03-23T13:45:36;4.50;;;2.10;;
19167;SDS011;9716;53.114;18.040;2024-03-23T13:48:04;5.73;;;2.27;;
19167;SDS011;9716;53.114;18.040;2024-03-23T13:50:31;4.03;;;1.70;;
19167;SDS011;9716;53.114;18.040;2024-03-23T13:52:59;3.50;;;1.77;;
19167;SDS011;9716;53.114;18.040;2024-03-23T13:55:27;5.70;;;1.80;;
19167;SDS011;9716;53.114;18.040;2024-03-23T13:57:55;2.63;;;1.43;;
19167;SDS011;9716;53.114;18.040;2024-03-23T14:00:22;3.27;;;2.30;;
19167;SDS011;9716;53.114;18.040;2024-03-23T14:02:56;5.87;;;1.30;;
19167;SDS011;9716;53.114;18.040;2024-03-23T14:05:23;1.50;;;1.17;;
19167;SDS011;9716;53.114;18.040;2024-03-23T14:07:51;3.07;;;1.53;;
19167;SDS011;9716;53.114;18.040;2024-03-23T14:10:18;2.77;;;1.37;;
19167;SDS011;9716;53.114;18.040;2024-03-23T14:12:48;2.30;;;1.30;;
19167;SDS011;9716;53.114;18.040;2024-03-23T14:15:18;1.43;;;1.00;;
19167;SDS011;9716;53.114;18.040;2024-03-23T14:17:45;1.90;;;1.30;;
19167;SDS011;9716;53.114;18.040;2024-03-23T14:20:12;1.33;;;1.07;;
19167;SDS011;9716;53.114;18.040;2024-03-23T14:22:57;2.60;;;1.27;;
19167;SDS011;9716;53.114;18.040;2024-03-23T14:25:39;1.33;;;1.00;;
19167;SDS011;9716;53.114;18.040;2024-03-23T14:28:08;1.60;;;1.03;;
19167;SDS011;9716;53.114;18.040;2024-03-23T14:30:41;2.63;;;1.10;;
19167;SDS011;9716;53.114;18.040;2024-03-23T14:36:12;3.43;;;1.73;;
19167;SDS011;9716;53.114;18.040;2024-03-23T14:41:32;1.87;;;1.37;;
19167;SDS011;9716;53.114;18.040;2024-03-23T14:44:13;2.87;;;1.17;;
19167;SDS011;9716;53.114;18.040;2024-03-23T14:46:56;2.77;;;1.03;;
19167;SDS011;9716;53.114;18.040;2024-03-23T14:49:27;2.23;;;1.20;;
19167;SDS011;9716;53.114;18.040;2024-03-23T14:51:57;5.57;;;1.43;;
19167;SDS011;9716;53.114;18.040;2024-03-23T14:54:39;4.07;;;1.77;;
19167;SDS011;9716;53.114;18.040;2024-03-23T14:57:15;6.93;;;2.50;;
19167;SDS011;9716;53.114;18.040;2024-03-23T14:59:46;8.33;;;2.80;;
19167;SDS011;9716;53.114;18.040;2024-03-23T15:08:12;3.50;;;1.90;;
19167;SDS011;9716;53.114;18.040;2024-03-23T15:18:00;3.80;;;1.70;;
19167;SDS011;9716;53.114;18.040;2024-03-23T15:20:58;2.20;;;1.30;;
19167;SDS011;9716;53.114;18.040;2024-03-23T15:23:57;1.83;;;1.17;;
19167;SDS011;9716;53.114;18.040;2024-03-23T15:26:51;2.20;;;1.10;;
19167;SDS011;9716;53.114;18.040;2024-03-23T15:43:28;3.03;;;1.53;;
19167;SDS011;9716;53.114;18.040;2024-03-23T15:46:11;3.43;;;1.20;;
19167;SDS011;9716;53.114;18.040;2024-03-23T15:48:40;2.23;;;1.17;;
19167;SDS011;9716;53.114;18.040;2024-03-23T15:51:12;2.50;;;1.23;;
19167;SDS011;9716;53.114;18.040;2024-03-23T15:53:40;3.37;;;1.20;;
19167;SDS011;9716;53.114;18.040;2024-03-23T15:56:08;1.67;;;1.00;;
19167;SDS011;9716;53.114;18.040;2024-03-23T15:58:38;5.83;;;1.60;;
19167;SDS011;9716;53.114;18.040;2024-03-23T16:01:05;4.23;;;1.47;;
19167;SDS011;9716;53.114;18.040;2024-03-23T16:03:34;1.77;;;1.33;;
19167;SDS011;9716;53.114;18.040;2024-03-23T16:06:02;1.60;;;1.50;;
19167;SDS011;9716;53.114;18.040;2024-03-23T16:08:31;3.27;;;1.10;;
19167;SDS011;9716;53.114;18.040;2024-03-23T16:10:59;4.00;;;1.33;;
19167;SDS011;9716;53.114;18.040;2024-03-23T16:13:28;4.60;;;1.77;;
19167;SDS011;9716;53.114;18.040;2024-03-23T16:15:57;2.20;;;1.20;;
19167;SDS011;9716;53.114;18.040;2024-03-23T16:18:25;4.33;;;1.43;;
19167;SDS011;9716;53.114;18.040;2024-03-23T16:20:53;2.10;;;1.13;;
19167;SDS011;9716;53.114;18.040;2024-03-23T16:23:21;2.70;;;1.60;;
19167;SDS011;9716;53.114;18.040;2024-03-23T16:25:51;3.03;;;1.43;;
19167;SDS011;9716;53.114;18.040;2024-03-23T16:28:23;5.30;;;1.93;;
19167;SDS011;9716;53.114;18.040;2024-03-23T16:30:54;4.60;;;1.73;;
19167;SDS011;9716;53.114;18.040;2024-03-23T16:33:24;3.87;;;1.80;;
19167;SDS011;9716;53.114;18.040;2024-03-23T16:35:58;2.87;;;1.90;;
19167;SDS011;9716;53.114;18.040;2024-03-23T16:38:27;10.13;;;2.33;;
19167;SDS011;9716;53.114;18.040;2024-03-23T16:40:56;4.10;;;1.80;;
19167;SDS011;9716;53.114;18.040;2024-03-23T16:43:26;6.27;;;2.03;;
19167;SDS011;9716;53.114;18.040;2024-03-23T16:45:54;4.07;;;2.33;;
19167;SDS011;9716;53.114;18.040;2024-03-23T16:48:25;5.03;;;2.20;;
19167;SDS011;9716;53.114;18.040;2024-03-23T16:50:53;3.50;;;2.00;;